메인 페이지
METAR-TAF:

METAR-TAF

공항 :

Fort Smith, 아칸소, 미국

위도: 35-20-01N, 경도: 094-21-54W, 고도: 142m

현재 날씨관측

예보는 1 시간 6분 전, 20:53시(UTC)에 발표되었습니다.
남남동7kt동남동풍과 풍을 오가는
온도 21°C
습도 28%
기압 1023 hPa
시정: 16.1km
고도 8000ft 상공 구름 조금

METAR: KFSM 192053Z 15007KT 110V170 10SM FEW080 21/02 A3020 RMK AO2 SLP223 T02110022 56039

시각: 16:59 (21:59 UTC)

예보

예보는 4 시간 35분 전, 17:24시(UTC)에 발표되었습니다.
예보 대상 시간: 19일 18시부터 20일 18시까지 (UTC)
남동8kt
시정: 10km
고도 10000ft 상공 구름 조금
20일 0000시부터 (UTC)
5kt
시정: 10km
고도 15000ft 상공 구름 보통
20일 1200시부터 (UTC)
6kt
시정: 10km
고도 5000ft 상공 흐림
일시적
20일 12시부터 20일 16시까지 (UTC)
시정: 8.0km
고도 2500ft 상공 구름 많음
약한비, 박무

TAF: KFSM 191724Z 1918/2018 13008KT P6SM FEW100 FM200000 09005KT P6SM SCT150 FM201200 28006KT P6SM OVC050 TEMPO 2012/2016 5SM -RA BR BKN025

4,000개 이상의 공항 관측 자료 및 예보 (METAR 및 TAF 보고).

지도상에서 검색 가능한 기상관측소가 노란 점과 빨간 점으로 표시되어 있습니다.

기상관측소 명을 보려면 표시 위로 마우스를 이동하세요.

날씨 관측과 예보를 보려면 클릭하세요.

지도 변경 : 확대하려면 엑스 표시가 있는 녹색 버튼, 축소하려면 빼기 표시가 있는 녹색 버튼, 다음 페이지의 지도를 보려면 녹색 화살표를 클릭하세요.


METAR-TAF: